BAW786 EGLL-LSZH
Flight info
| Callsign | BAW786 |
|---|---|
| Flight time | 1h 16m |
| Altitude | 29000 |
| Route | DET L6 DVR UL9 KONAN DCT KOK DCT SISGA DCT RITAX DCT KRH M150 LAMGO/N0412F270 T721 SUL/N0400F250 T721 RILAX |
| Aircraft | A388/J-SADE2E3FGHIJ3J4J5M1RWXY/LB1D1 |
Departure
| Time | 2026-05-05 19:38 |
|---|---|
| Airport | London Heathrow Airport (EGLL) |
Arrival
| Time | 2026-05-05 20:54 |
|---|---|
| Airport | Zürich Airport (LSZH) |
| Time | Latitude | Longitude | Altitude | Speed | Heading |
|---|---|---|---|---|---|
| 2026-05-05 19:04 | 51.47088 | -0.48556 | 90 ft | 0 kts | 270° |
| 2026-05-05 19:07 | 51.47088 | -0.48560 | 93 ft | 1 kts | 270° |
| 2026-05-05 19:29 | 51.47088 | -0.48559 | 93 ft | 1 kts | 270° |
| 2026-05-05 19:29 | 51.47088 | -0.48548 | 92 ft | 1 kts | 270° |
| 2026-05-05 19:30 | 51.47088 | -0.48538 | 91 ft | 1 kts | 270° |
| 2026-05-05 19:30 | 51.47088 | -0.48511 | 90 ft | 4 kts | 270° |
| 2026-05-05 19:30 | 51.47088 | -0.48488 | 90 ft | 0 kts | 267° |
| 2026-05-05 19:30 | 51.47088 | -0.48489 | 90 ft | 0 kts | 267° |
| 2026-05-05 19:31 | 51.47088 | -0.48488 | 90 ft | 1 kts | 268° |
| 2026-05-05 19:31 | 51.47088 | -0.48477 | 90 ft | 1 kts | 269° |
| 2026-05-05 19:31 | 51.47102 | -0.48454 | 93 ft | 0 kts | 206° |
| 2026-05-05 19:32 | 51.47093 | -0.48461 | 92 ft | 5 kts | 207° |
| 2026-05-05 19:32 | 51.47082 | -0.48471 | 90 ft | 0 kts | 208° |
| 2026-05-05 19:32 | 51.47079 | -0.48473 | 90 ft | 1 kts | 202° |
| 2026-05-05 19:32 | 51.47078 | -0.48473 | 90 ft | 0 kts | 199° |
| 2026-05-05 19:33 | 51.46995 | -0.48471 | 92 ft | 35 kts | 156° |
| 2026-05-05 19:33 | 51.46894 | -0.48461 | 92 ft | 0 kts | 191° |
| 2026-05-05 19:34 | 51.46849 | -0.48471 | 90 ft | 13 kts | 182° |
| 2026-05-05 19:35 | 51.46823 | -0.48471 | 92 ft | 5 kts | 179° |
| 2026-05-05 19:35 | 51.46741 | -0.48469 | 90 ft | 18 kts | 180° |
| 2026-05-05 19:35 | 51.46611 | -0.48468 | 94 ft | 0 kts | 179° |
| 2026-05-05 19:37 | 51.46609 | -0.48468 | 94 ft | 2 kts | 179° |
| 2026-05-05 19:37 | 51.46546 | -0.48466 | 94 ft | 15 kts | 172° |
| 2026-05-05 19:37 | 51.46480 | -0.48317 | 94 ft | 22 kts | 98° |
| 2026-05-05 19:37 | 51.46483 | -0.47962 | 91 ft | 65 kts | 86° |
| 2026-05-05 19:38 | 51.46488 | -0.46642 | 113 ft | 158 kts | 88° |
| 2026-05-05 19:38 | 51.46469 | -0.44773 | 933 ft | 174 kts | 89° |
| 2026-05-05 19:38 | 51.46484 | -0.42802 | 2095 ft | 182 kts | 87° |
| 2026-05-05 19:38 | 51.46409 | -0.40689 | 2896 ft | 202 kts | 105° |
| 2026-05-05 19:39 | 51.45704 | -0.38604 | 3516 ft | 225 kts | 123° |
| 2026-05-05 19:39 | 51.44723 | -0.36512 | 4049 ft | 245 kts | 122° |
| 2026-05-05 19:39 | 51.43855 | -0.34037 | 4536 ft | 262 kts | 111° |
| 2026-05-05 19:39 | 51.43231 | -0.31271 | 5229 ft | 266 kts | 104° |
| 2026-05-05 19:40 | 51.42752 | -0.28401 | 5969 ft | 270 kts | 101° |
| 2026-05-05 19:40 | 51.42332 | -0.25427 | 6684 ft | 274 kts | 100° |
| 2026-05-05 19:40 | 51.41941 | -0.22444 | 7355 ft | 279 kts | 99° |
| 2026-05-05 19:40 | 51.41538 | -0.19366 | 8056 ft | 283 kts | 100° |
| 2026-05-05 19:41 | 51.41122 | -0.16261 | 8741 ft | 287 kts | 100° |
| 2026-05-05 19:41 | 51.40692 | -0.13104 | 9421 ft | 292 kts | 101° |
| 2026-05-05 19:41 | 51.40252 | -0.09909 | 10066 ft | 296 kts | 101° |
| 2026-05-05 19:41 | 51.39805 | -0.06677 | 10724 ft | 298 kts | 101° |
| 2026-05-05 19:42 | 51.39345 | -0.03360 | 11310 ft | 312 kts | 101° |
| 2026-05-05 19:42 | 51.38861 | 0.00132 | 11650 ft | 335 kts | 101° |
| 2026-05-05 19:42 | 51.38344 | 0.03848 | 12175 ft | 349 kts | 101° |
| 2026-05-05 19:42 | 51.37809 | 0.07669 | 13007 ft | 354 kts | 102° |
| 2026-05-05 19:43 | 51.37268 | 0.11532 | 13879 ft | 357 kts | 102° |
| 2026-05-05 19:43 | 51.36722 | 0.15415 | 14665 ft | 360 kts | 102° |
| 2026-05-05 19:43 | 51.36169 | 0.19344 | 15413 ft | 364 kts | 102° |
| 2026-05-05 19:43 | 51.35607 | 0.23317 | 16180 ft | 368 kts | 102° |
| 2026-05-05 19:44 | 51.35060 | 0.27189 | 16910 ft | 371 kts | 102° |
| 2026-05-05 19:44 | 51.34482 | 0.31259 | 17646 ft | 374 kts | 102° |
| 2026-05-05 19:44 | 51.33904 | 0.35322 | 18376 ft | 378 kts | 101° |
| 2026-05-05 19:44 | 51.33318 | 0.39435 | 18995 ft | 381 kts | 102° |
| 2026-05-05 19:45 | 51.32724 | 0.43589 | 19748 ft | 384 kts | 102° |
| 2026-05-05 19:45 | 51.32126 | 0.47760 | 20339 ft | 388 kts | 102° |
| 2026-05-05 19:45 | 51.31517 | 0.51993 | 20941 ft | 391 kts | 102° |
| 2026-05-05 19:45 | 51.30903 | 0.56257 | 21496 ft | 396 kts | 102° |
| 2026-05-05 19:46 | 51.30264 | 0.60543 | 22041 ft | 400 kts | 104° |
| 2026-05-05 19:46 | 51.29476 | 0.64833 | 22579 ft | 404 kts | 105° |
| 2026-05-05 19:46 | 51.28681 | 0.69160 | 23135 ft | 408 kts | 105° |
| 2026-05-05 19:46 | 51.27883 | 0.73520 | 23672 ft | 411 kts | 105° |
| 2026-05-05 19:47 | 51.27075 | 0.77930 | 24135 ft | 414 kts | 105° |
| 2026-05-05 19:47 | 51.26263 | 0.82348 | 24629 ft | 417 kts | 105° |
| 2026-05-05 19:47 | 51.25443 | 0.86805 | 25144 ft | 419 kts | 106° |
| 2026-05-05 19:47 | 51.24616 | 0.91284 | 25670 ft | 422 kts | 107° |
| 2026-05-05 19:48 | 51.23784 | 0.95778 | 26177 ft | 425 kts | 107° |
| 2026-05-05 19:48 | 51.22945 | 1.00295 | 26786 ft | 427 kts | 107° |
| 2026-05-05 19:48 | 51.22094 | 1.04862 | 27375 ft | 430 kts | 107° |
| 2026-05-05 19:48 | 51.21238 | 1.09452 | 27980 ft | 433 kts | 108° |
| 2026-05-05 19:49 | 51.20390 | 1.13994 | 28604 ft | 436 kts | 108° |
| 2026-05-05 19:49 | 51.19798 | 1.17148 | 28868 ft | 439 kts | 108° |
| 2026-05-05 19:49 | 51.18607 | 1.23478 | 28941 ft | 455 kts | 108° |
| 2026-05-05 19:50 | 51.16789 | 1.33236 | 28935 ft | 465 kts | 105° |
| 2026-05-05 19:50 | 51.15882 | 1.43525 | 28932 ft | 467 kts | 95° |
| 2026-05-05 19:51 | 51.15411 | 1.53816 | 28931 ft | 466 kts | 96° |
| 2026-05-05 19:51 | 51.14908 | 1.64103 | 28931 ft | 466 kts | 96° |
| 2026-05-05 19:52 | 51.14395 | 1.74378 | 28928 ft | 466 kts | 96° |
| 2026-05-05 19:52 | 51.13874 | 1.84662 | 28922 ft | 465 kts | 96° |
| 2026-05-05 19:53 | 51.13350 | 1.94839 | 28920 ft | 460 kts | 97° |
| 2026-05-05 19:53 | 51.12817 | 2.04980 | 28916 ft | 461 kts | 97° |
| 2026-05-05 19:54 | 51.12276 | 2.15119 | 28914 ft | 460 kts | 97° |
| 2026-05-05 19:54 | 51.11725 | 2.25274 | 28913 ft | 459 kts | 97° |
| 2026-05-05 19:55 | 51.11165 | 2.35432 | 28914 ft | 461 kts | 97° |
| 2026-05-05 19:55 | 51.10597 | 2.45580 | 28911 ft | 462 kts | 97° |
| 2026-05-05 19:56 | 51.10020 | 2.55740 | 28911 ft | 461 kts | 97° |
| 2026-05-05 19:56 | 51.08849 | 2.65701 | 28911 ft | 456 kts | 110° |
| 2026-05-05 19:57 | 51.06259 | 2.74885 | 28913 ft | 457 kts | 120° |
| 2026-05-05 19:57 | 51.03299 | 2.83770 | 28902 ft | 453 kts | 120° |
| 2026-05-05 19:58 | 51.00357 | 2.92634 | 28906 ft | 454 kts | 119° |
| 2026-05-05 19:58 | 50.97399 | 3.01497 | 28904 ft | 454 kts | 119° |
| 2026-05-05 19:59 | 50.94454 | 3.10283 | 28897 ft | 454 kts | 120° |
| 2026-05-05 19:59 | 50.91482 | 3.19115 | 28885 ft | 454 kts | 120° |
| 2026-05-05 20:00 | 50.88506 | 3.27929 | 28881 ft | 454 kts | 120° |
| 2026-05-05 20:00 | 50.85523 | 3.36732 | 28884 ft | 454 kts | 120° |
| 2026-05-05 20:01 | 50.82532 | 3.45529 | 28878 ft | 454 kts | 120° |
| 2026-05-05 20:01 | 50.79546 | 3.54278 | 28872 ft | 451 kts | 119° |
| 2026-05-05 20:02 | 50.76656 | 3.62720 | 28873 ft | 452 kts | 119° |
| 2026-05-05 20:02 | 50.73663 | 3.71435 | 28872 ft | 452 kts | 119° |
| 2026-05-05 20:03 | 50.70662 | 3.80140 | 28871 ft | 450 kts | 119° |
| 2026-05-05 20:03 | 50.67662 | 3.88814 | 28871 ft | 451 kts | 119° |
| 2026-05-05 20:04 | 50.64655 | 3.97479 | 28869 ft | 451 kts | 119° |
| 2026-05-05 20:04 | 50.61641 | 4.06136 | 28861 ft | 450 kts | 119° |
| 2026-05-05 20:05 | 50.58901 | 4.15014 | 28865 ft | 451 kts | 115° |
| 2026-05-05 20:05 | 50.56301 | 4.23985 | 28860 ft | 449 kts | 115° |
| 2026-05-05 20:06 | 50.53678 | 4.32805 | 28857 ft | 449 kts | 116° |
| 2026-05-05 20:06 | 50.50989 | 4.41727 | 28856 ft | 449 kts | 116° |
| 2026-05-05 20:07 | 50.48309 | 4.50574 | 28856 ft | 449 kts | 116° |
| 2026-05-05 20:07 | 50.45623 | 4.59414 | 28857 ft | 449 kts | 116° |
| 2026-05-05 20:08 | 50.42950 | 4.68178 | 28856 ft | 447 kts | 116° |
| 2026-05-05 20:08 | 50.40262 | 4.76962 | 28850 ft | 447 kts | 116° |
| 2026-05-05 20:09 | 50.37561 | 4.85756 | 28851 ft | 447 kts | 116° |
| 2026-05-05 20:09 | 50.34857 | 4.94526 | 28851 ft | 447 kts | 116° |
| 2026-05-05 20:10 | 50.32155 | 5.03261 | 28845 ft | 447 kts | 116° |
| 2026-05-05 20:10 | 50.29424 | 5.12050 | 28844 ft | 449 kts | 116° |
| 2026-05-05 20:11 | 50.26693 | 5.20817 | 28837 ft | 448 kts | 116° |
| 2026-05-05 20:11 | 50.23974 | 5.29515 | 28837 ft | 448 kts | 116° |
| 2026-05-05 20:12 | 50.21211 | 5.38324 | 28835 ft | 449 kts | 116° |
| 2026-05-05 20:12 | 50.18462 | 5.47053 | 28829 ft | 448 kts | 116° |
| 2026-05-05 20:13 | 50.15699 | 5.55794 | 28825 ft | 451 kts | 116° |
| 2026-05-05 20:13 | 50.12919 | 5.64560 | 28827 ft | 451 kts | 116° |
| 2026-05-05 20:14 | 50.10155 | 5.73245 | 28820 ft | 450 kts | 116° |
| 2026-05-05 20:14 | 50.07301 | 5.81997 | 28818 ft | 450 kts | 120° |
| 2026-05-05 20:15 | 50.04166 | 5.90363 | 28821 ft | 450 kts | 120° |
| 2026-05-05 20:15 | 50.01039 | 5.98804 | 28816 ft | 451 kts | 120° |
| 2026-05-05 20:16 | 49.97901 | 6.07229 | 28807 ft | 451 kts | 120° |
| 2026-05-05 20:16 | 49.94748 | 6.15647 | 28808 ft | 451 kts | 120° |
| 2026-05-05 20:17 | 49.91592 | 6.24045 | 28799 ft | 451 kts | 120° |
| 2026-05-05 20:17 | 49.88424 | 6.32446 | 28802 ft | 451 kts | 120° |
| 2026-05-05 20:18 | 49.85260 | 6.40813 | 28793 ft | 451 kts | 121° |
| 2026-05-05 20:18 | 49.82072 | 6.49211 | 28794 ft | 451 kts | 121° |
| 2026-05-05 20:19 | 49.78885 | 6.57581 | 28788 ft | 451 kts | 121° |
| 2026-05-05 20:19 | 49.76236 | 6.64518 | 28794 ft | 452 kts | 121° |
| 2026-05-05 20:20 | 49.73032 | 6.72882 | 28797 ft | 451 kts | 121° |
| 2026-05-05 20:20 | 49.69824 | 6.81235 | 28795 ft | 452 kts | 121° |
| 2026-05-05 20:21 | 49.66612 | 6.89569 | 28808 ft | 452 kts | 122° |
| 2026-05-05 20:21 | 49.63392 | 6.97894 | 28808 ft | 452 kts | 122° |
| 2026-05-05 20:22 | 49.60169 | 7.06202 | 28817 ft | 452 kts | 122° |
| 2026-05-05 20:22 | 49.56934 | 7.14516 | 28817 ft | 452 kts | 122° |
| 2026-05-05 20:23 | 49.53697 | 7.22811 | 28816 ft | 451 kts | 122° |
| 2026-05-05 20:23 | 49.50459 | 7.31079 | 28817 ft | 452 kts | 122° |
| 2026-05-05 20:24 | 49.47202 | 7.39371 | 28811 ft | 453 kts | 122° |
| 2026-05-05 20:24 | 49.43961 | 7.47594 | 28818 ft | 453 kts | 122° |
| 2026-05-05 20:25 | 49.40698 | 7.55849 | 28803 ft | 453 kts | 122° |
| 2026-05-05 20:25 | 49.37420 | 7.64114 | 28792 ft | 455 kts | 122° |
| 2026-05-05 20:26 | 49.34123 | 7.72403 | 28793 ft | 454 kts | 123° |
| 2026-05-05 20:26 | 49.30835 | 7.80644 | 28816 ft | 454 kts | 123° |
| 2026-05-05 20:27 | 49.27535 | 7.88890 | 28820 ft | 454 kts | 123° |
| 2026-05-05 20:27 | 49.24224 | 7.97138 | 28830 ft | 455 kts | 123° |
| 2026-05-05 20:28 | 49.20887 | 8.05423 | 28811 ft | 459 kts | 123° |
| 2026-05-05 20:28 | 49.17540 | 8.13706 | 28814 ft | 458 kts | 123° |
| 2026-05-05 20:29 | 49.14180 | 8.21997 | 28825 ft | 458 kts | 123° |
| 2026-05-05 20:29 | 49.10820 | 8.30261 | 28824 ft | 458 kts | 123° |
| 2026-05-05 20:30 | 49.07455 | 8.38513 | 28822 ft | 458 kts | 124° |
| 2026-05-05 20:30 | 49.04088 | 8.46742 | 28823 ft | 458 kts | 124° |
| 2026-05-05 20:31 | 49.00708 | 8.54986 | 28830 ft | 458 kts | 124° |
| 2026-05-05 20:31 | 48.96935 | 8.62753 | 28829 ft | 457 kts | 132° |
| 2026-05-05 20:32 | 48.92737 | 8.69987 | 28760 ft | 447 kts | 140° |
| 2026-05-05 20:32 | 48.90276 | 8.72719 | 28611 ft | 430 kts | 151° |
| 2026-05-05 20:32 | 48.87619 | 8.74609 | 28212 ft | 417 kts | 161° |
| 2026-05-05 20:32 | 48.84827 | 8.75687 | 27488 ft | 412 kts | 172° |
| 2026-05-05 20:33 | 48.81990 | 8.75941 | 26772 ft | 407 kts | 182° |
| 2026-05-05 20:33 | 48.79196 | 8.75425 | 26076 ft | 403 kts | 191° |
| 2026-05-05 20:33 | 48.76453 | 8.74650 | 25378 ft | 399 kts | 190° |
| 2026-05-05 20:33 | 48.73727 | 8.73915 | 24719 ft | 395 kts | 190° |
| 2026-05-05 20:34 | 48.71036 | 8.73201 | 24125 ft | 390 kts | 189° |
| 2026-05-05 20:34 | 48.68435 | 8.72363 | 23439 ft | 386 kts | 192° |
| 2026-05-05 20:34 | 48.65817 | 8.71513 | 22690 ft | 383 kts | 191° |
| 2026-05-05 20:34 | 48.63198 | 8.70682 | 21973 ft | 379 kts | 192° |
| 2026-05-05 20:35 | 48.60661 | 8.69863 | 21274 ft | 376 kts | 192° |
| 2026-05-05 20:35 | 48.58084 | 8.69016 | 20578 ft | 372 kts | 192° |
| 2026-05-05 20:35 | 48.55595 | 8.68187 | 19909 ft | 369 kts | 193° |
| 2026-05-05 20:35 | 48.53066 | 8.67341 | 19229 ft | 366 kts | 193° |
| 2026-05-05 20:36 | 48.50591 | 8.66511 | 18594 ft | 363 kts | 193° |
| 2026-05-05 20:36 | 48.48132 | 8.65687 | 17941 ft | 360 kts | 193° |
| 2026-05-05 20:36 | 48.45725 | 8.64882 | 17258 ft | 357 kts | 193° |
| 2026-05-05 20:36 | 48.43290 | 8.64069 | 16574 ft | 353 kts | 194° |
| 2026-05-05 20:37 | 48.40898 | 8.63272 | 15920 ft | 350 kts | 194° |
| 2026-05-05 20:37 | 48.38530 | 8.62483 | 15275 ft | 346 kts | 194° |
| 2026-05-05 20:37 | 48.36222 | 8.61714 | 14643 ft | 343 kts | 194° |
| 2026-05-05 20:37 | 48.33900 | 8.60942 | 14017 ft | 340 kts | 195° |
| 2026-05-05 20:38 | 48.31637 | 8.60190 | 13399 ft | 337 kts | 195° |
| 2026-05-05 20:38 | 48.29324 | 8.59421 | 12719 ft | 333 kts | 195° |
| 2026-05-05 20:38 | 48.27045 | 8.58665 | 12060 ft | 329 kts | 195° |
| 2026-05-05 20:38 | 48.24827 | 8.57930 | 11430 ft | 325 kts | 195° |
| 2026-05-05 20:39 | 48.22630 | 8.57202 | 10818 ft | 322 kts | 195° |
| 2026-05-05 20:39 | 48.20450 | 8.56481 | 10245 ft | 317 kts | 195° |
| 2026-05-05 20:39 | 48.18384 | 8.55801 | 10073 ft | 301 kts | 195° |
| 2026-05-05 20:39 | 48.16395 | 8.55148 | 9949 ft | 285 kts | 196° |
| 2026-05-05 20:40 | 48.14513 | 8.54529 | 9833 ft | 270 kts | 196° |
| 2026-05-05 20:40 | 48.12718 | 8.53937 | 9717 ft | 257 kts | 196° |
| 2026-05-05 20:40 | 48.11022 | 8.53378 | 9611 ft | 244 kts | 197° |
| 2026-05-05 20:40 | 48.09401 | 8.52845 | 9523 ft | 232 kts | 197° |
| 2026-05-05 20:41 | 48.07859 | 8.52337 | 9441 ft | 222 kts | 197° |
| 2026-05-05 20:41 | 48.06390 | 8.51853 | 9353 ft | 212 kts | 197° |
| 2026-05-05 20:41 | 48.04977 | 8.51387 | 9253 ft | 204 kts | 198° |
| 2026-05-05 20:41 | 48.03599 | 8.50930 | 9021 ft | 203 kts | 198° |
| 2026-05-05 20:42 | 48.02217 | 8.50471 | 8783 ft | 202 kts | 198° |
| 2026-05-05 20:42 | 48.00843 | 8.50017 | 8536 ft | 202 kts | 198° |
| 2026-05-05 20:42 | 47.99473 | 8.49565 | 8291 ft | 201 kts | 198° |
| 2026-05-05 20:42 | 47.98110 | 8.49117 | 8066 ft | 200 kts | 197° |
| 2026-05-05 20:43 | 47.96750 | 8.48672 | 7823 ft | 200 kts | 197° |
| 2026-05-05 20:43 | 47.95392 | 8.48228 | 7599 ft | 199 kts | 197° |
| 2026-05-05 20:43 | 47.94049 | 8.47789 | 7385 ft | 198 kts | 197° |
| 2026-05-05 20:43 | 47.92701 | 8.47347 | 7159 ft | 198 kts | 197° |
| 2026-05-05 20:44 | 47.91362 | 8.46908 | 6927 ft | 197 kts | 197° |
| 2026-05-05 20:44 | 47.90024 | 8.46470 | 6723 ft | 195 kts | 197° |
| 2026-05-05 20:44 | 47.88695 | 8.46035 | 6428 ft | 199 kts | 197° |
| 2026-05-05 20:44 | 47.87300 | 8.45573 | 5863 ft | 214 kts | 197° |
| 2026-05-05 20:45 | 47.84423 | 8.44639 | 5545 ft | 204 kts | 196° |
| 2026-05-05 20:45 | 47.83066 | 8.44206 | 5437 ft | 195 kts | 196° |
| 2026-05-05 20:45 | 47.81744 | 8.43777 | 5107 ft | 198 kts | 197° |
| 2026-05-05 20:46 | 47.80370 | 8.43321 | 4678 ft | 207 kts | 196° |
| 2026-05-05 20:46 | 47.78950 | 8.42856 | 4313 ft | 211 kts | 196° |
| 2026-05-05 20:46 | 47.77471 | 8.42373 | 3901 ft | 223 kts | 195° |
| 2026-05-05 20:46 | 47.75967 | 8.41879 | 3827 ft | 217 kts | 195° |
| 2026-05-05 20:47 | 47.74550 | 8.41424 | 3818 ft | 204 kts | 195° |
| 2026-05-05 20:47 | 47.73182 | 8.40975 | 3825 ft | 197 kts | 194° |
| 2026-05-05 20:47 | 47.71870 | 8.40551 | 3824 ft | 184 kts | 195° |
| 2026-05-05 20:47 | 47.70657 | 8.40161 | 3823 ft | 175 kts | 194° |
| 2026-05-05 20:48 | 47.69481 | 8.39784 | 3829 ft | 178 kts | 195° |
| 2026-05-05 20:48 | 47.68271 | 8.39394 | 3833 ft | 178 kts | 195° |
| 2026-05-05 20:48 | 47.67066 | 8.39002 | 3812 ft | 178 kts | 195° |
| 2026-05-05 20:48 | 47.65844 | 8.38605 | 3824 ft | 179 kts | 195° |
| 2026-05-05 20:49 | 47.64630 | 8.38213 | 3829 ft | 178 kts | 195° |
| 2026-05-05 20:49 | 47.63422 | 8.37821 | 3816 ft | 178 kts | 195° |
| 2026-05-05 20:49 | 47.62210 | 8.37426 | 3828 ft | 179 kts | 195° |
| 2026-05-05 20:49 | 47.60972 | 8.37206 | 3810 ft | 183 kts | 177° |
| 2026-05-05 20:50 | 47.59774 | 8.37899 | 3833 ft | 188 kts | 150° |
| 2026-05-05 20:50 | 47.58839 | 8.39049 | 3813 ft | 164 kts | 142° |
| 2026-05-05 20:50 | 47.58052 | 8.40163 | 3814 ft | 152 kts | 144° |
| 2026-05-05 20:50 | 47.57277 | 8.41198 | 3830 ft | 150 kts | 144° |
| 2026-05-05 20:51 | 47.56516 | 8.42248 | 3667 ft | 149 kts | 143° |
| 2026-05-05 20:51 | 47.55757 | 8.43285 | 3478 ft | 148 kts | 144° |
| 2026-05-05 20:51 | 47.55000 | 8.44317 | 3275 ft | 148 kts | 144° |
| 2026-05-05 20:51 | 47.54247 | 8.45343 | 3094 ft | 146 kts | 144° |
| 2026-05-05 20:52 | 47.53505 | 8.46344 | 2891 ft | 145 kts | 141° |
| 2026-05-05 20:52 | 47.52770 | 8.47371 | 2718 ft | 144 kts | 142° |
| 2026-05-05 20:52 | 47.52035 | 8.48368 | 2519 ft | 142 kts | 142° |
| 2026-05-05 20:52 | 47.51320 | 8.49357 | 2307 ft | 140 kts | 140° |
| 2026-05-05 20:53 | 47.50608 | 8.50333 | 2102 ft | 139 kts | 140° |
| 2026-05-05 20:53 | 47.49899 | 8.51297 | 1897 ft | 138 kts | 139° |
| 2026-05-05 20:53 | 47.49193 | 8.52267 | 1718 ft | 138 kts | 139° |
| 2026-05-05 20:53 | 47.48494 | 8.53214 | 1528 ft | 135 kts | 139° |
| 2026-05-05 20:54 | 47.47813 | 8.54147 | 1411 ft | 127 kts | 133° |
| 2026-05-05 20:54 | 47.47314 | 8.54830 | 1412 ft | 63 kts | 137° |
| 2026-05-05 20:54 | 47.47036 | 8.55208 | 1408 ft | 45 kts | 137° |
| 2026-05-05 20:54 | 47.46858 | 8.55451 | 1411 ft | 8 kts | 136° |
| 2026-05-05 20:55 | 47.46791 | 8.55540 | 1410 ft | 19 kts | 142° |
| 2026-05-05 20:55 | 47.46668 | 8.55645 | 1406 ft | 22 kts | 159° |
| 2026-05-05 20:55 | 47.46485 | 8.55715 | 1409 ft | 34 kts | 167° |
| 2026-05-05 20:55 | 47.46396 | 8.55754 | 1409 ft | 0 kts | 148° |
| 2026-05-05 20:56 | 47.46386 | 8.55763 | 1406 ft | 8 kts | 146° |
| 2026-05-05 20:56 | 47.46312 | 8.55854 | 1410 ft | 4 kts | 140° |
| 2026-05-05 20:56 | 47.46280 | 8.55871 | 1411 ft | 10 kts | 191° |
| 2026-05-05 20:56 | 47.46243 | 8.55770 | 1403 ft | 19 kts | 261° |
| 2026-05-05 20:57 | 47.46251 | 8.55563 | 1409 ft | 0 kts | 270° |
| 2026-05-05 20:57 | 47.46245 | 8.55530 | 1407 ft | 7 kts | 231° |
| 2026-05-05 20:57 | 47.46232 | 8.55512 | 1409 ft | 2 kts | 205° |
| 2026-05-05 20:57 | 47.46183 | 8.55496 | 1402 ft | 0 kts | 182° |